Summit Argo, Illinois
Current Conditions -  °F | °C
As of 7:53 AM on Tuesday 27 Jan 2015 (Local Time) from KMDW Reporting Station
Overcast Overcast  
Wind Chill: 21°   Ceiling: 1700
Heat Index: 30°   Visibility: 10mi
Dew Point: 23°   Wind: 10mph
Humidity: 75%   Direction: 60°ENE
Pressure: 30.09"   Gusts: NA
Location:  41.78°N, 87.81°W
Report Text: KMDW 271353Z 06009KT 10SM OVC017 M01/M05 A3009 RMK AO2 SLP202 T10111050
Loading
Personal Weather Stations






























Interactive Weather Map New forecast layout! Learn more

10-Day Weather Forecast

Advertisements
Track Severe Weather on mobile